Time;durP1;ratioP1;P1;durP2;ratioP2;P2;SDS_P1;SDS_P2;PMS_P1;PMS_P2;Temp;Humidity;BMP_temperature;BMP_pressure;BME280_temperature;BME280_humidity;BME280_pressure;Samples;Min_cycle;Max_cycle;Signal;HPM_P1;HPM_P2
2022/08/14 00:00:43;;;;;;;0.30;0.30;;;19.50;99.90;;;;;;4955984;29;20254;-71
2022/08/14 00:03:24;;;;;;;3.17;0.40;;;19.70;99.90;;;;;;4956798;28;20184;-69
2022/08/14 00:05:53;;;;;;;0.43;0.37;;;20.60;99.90;;;;;;4970125;28;20187;-71
2022/08/14 00:08:22;;;;;;;0.87;0.30;;;20.60;99.90;;;;;;4973452;28;20192;-72
2022/08/14 00:10:50;;;;;;;0.43;0.40;;;19.80;99.90;;;;;;4988607;28;20198;-71
2022/08/14 00:13:19;;;;;;;0.60;0.50;;;19.80;99.90;;;;;;4978976;28;20187;-69
2022/08/14 00:15:50;;;;;;;0.70;0.57;;;19.80;99.90;;;;;;4972826;28;20238;-70
2022/08/14 00:18:21;;;;;;;0.60;0.47;;;19.40;99.90;;;;;;4972819;28;20232;-69
2022/08/14 00:20:49;;;;;;;0.40;0.40;;;19.50;99.90;;;;;;4972998;28;20330;-70
2022/08/14 00:23:18;;;;;;;0.40;0.40;;;19.30;99.90;;;;;;4973554;28;20186;-70
2022/08/14 00:25:51;;;;;;;0.47;0.33;;;19.40;98.80;;;;;;4973112;28;20185;-69
2022/08/14 00:28:25;;;;;;;2.20;0.40;;;19.80;95.10;;;;;;4973382;28;20184;-70
2022/08/14 00:30:58;;;;;;;0.57;0.40;;;19.30;92.70;;;;;;4973222;28;20211;-69
2022/08/14 00:33:28;;;;;;;1.57;0.30;;;18.10;96.30;;;;;;4954142;29;20180;-69
2022/08/14 00:35:55;;;;;;;0.40;0.30;;;17.70;99.90;;;;;;4958615;28;20266;-71
2022/08/14 00:38:23;;;;;;;0.53;0.40;;;17.50;99.90;;;;;;4955238;28;20191;-78
2022/08/14 00:40:53;;;;;;;0.77;0.30;;;17.40;99.90;;;;;;4972546;28;20670;-72
2022/08/14 00:43:21;;;;;;;0.40;0.40;;;16.80;99.90;;;;;;4972626;28;20187;-76
2022/08/14 00:45:49;;;;;;;0.40;0.40;;;16.70;99.90;;;;;;4973331;28;20179;-75
2022/08/14 00:48:17;;;;;;;0.37;0.37;;;16.50;99.90;;;;;;4955867;28;20255;-76
2022/08/14 00:50:45;;;;;;;0.80;0.63;;;16.50;99.90;;;;;;4972451;28;20218;-77
2022/08/14 00:53:15;;;;;;;0.83;0.40;;;16.70;99.90;;;;;;4972965;28;20573;-71
2022/08/14 00:55:45;;;;;;;1.90;0.40;;;16.60;99.90;;;;;;4972947;28;20179;-71
2022/08/14 00:58:30;;;;;;;0.73;0.50;;;16.60;99.90;;;;;;4972832;28;20190;-74
2022/08/14 01:01:08;;;;;;;0.80;0.60;;;16.70;99.90;;;;;;4972758;28;20269;-71
2022/08/14 01:03:38;;;;;;;0.60;0.50;;;16.70;99.90;;;;;;4955323;28;20294;-76
2022/08/14 01:06:07;;;;;;;1.73;0.57;;;16.50;99.90;;;;;;4969448;28;20186;-76
2022/08/14 01:08:37;;;;;;;0.50;0.50;;;16.40;99.90;;;;;;4972282;28;20205;-71
2022/08/14 01:11:06;;;;;;;2.10;0.50;;;16.30;99.90;;;;;;4955110;28;20305;-71
2022/08/14 01:13:39;;;;;;;0.43;0.40;;;16.50;99.90;;;;;;4972827;28;20200;-71
2022/08/14 01:16:12;;;;;;;0.43;0.40;;;16.80;99.90;;;;;;4955301;28;20606;-72
2022/08/14 01:21:38;;;;;;;0.50;0.40;;;17.00;99.90;;;;;;4953765;29;20283;-71
2022/08/14 01:24:09;;;;;;;0.40;0.40;;;16.90;99.90;;;;;;4953518;29;20172;-72
2022/08/14 01:26:36;;;;;;;0.90;0.50;;;17.00;99.90;;;;;;4953506;29;20194;-77
2022/08/14 01:29:06;;;;;;;0.50;0.40;;;17.40;99.90;;;;;;4959100;28;20290;-72
2022/08/14 01:31:53;;;;;;;0.40;0.40;;;17.80;97.60;;;;;;4974249;28;20301;-77
2022/08/14 01:34:24;;;;;;;0.77;0.50;;;18.40;97.80;;;;;;4976601;28;20180;-71
2022/08/14 01:36:52;;;;;;;0.40;0.40;;;18.80;93.70;;;;;;4976329;28;20225;-72
2022/08/14 01:39:20;;;;;;;0.60;0.40;;;19.00;88.40;;;;;;4976501;28;20184;-71
2022/08/14 01:41:55;;;;;;;0.40;0.40;;;18.60;83.30;;;;;;4958686;28;20687;-72
2022/08/14 01:44:28;;;;;;;0.47;0.43;;;18.40;90.60;;;;;;4976003;28;20271;-78
2022/08/14 01:46:58;;;;;;;0.50;0.50;;;18.50;85.80;;;;;;4975935;28;20197;-73
2022/08/14 01:49:27;;;;;;;0.40;0.40;;;18.90;84.00;;;;;;4975937;28;20194;-75
2022/08/14 01:51:55;;;;;;;0.43;0.30;;;19.50;77.00;;;;;;4975548;28;20251;-72
2022/08/14 01:54:24;;;;;;;1.13;0.30;;;20.20;80.30;;;;;;4975705;28;20304;-76
2022/08/14 01:56:56;;;;;;;0.80;0.40;;;20.40;75.90;;;;;;4975904;28;20199;-71
2022/08/14 01:59:33;;;;;;;1.07;0.50;;;20.20;69.90;;;;;;4976127;28;20638;-72
2022/08/14 02:02:08;;;;;;;1.03;0.50;;;19.40;73.60;;;;;;4975676;28;20191;-71
2022/08/14 02:04:36;;;;;;;0.40;0.40;;;18.70;77.70;;;;;;4958659;28;20190;-77
2022/08/14 02:07:05;;;;;;;0.40;0.40;;;18.50;82.80;;;;;;4957025;28;20242;-71
2022/08/14 02:09:37;;;;;;;0.40;0.40;;;19.20;88.60;;;;;;4975861;28;20602;-71
2022/08/14 02:12:07;;;;;;;0.87;0.33;;;19.60;86.10;;;;;;4964283;28;20599;-78
2022/08/14 02:14:35;;;;;;;0.63;0.50;;;20.10;78.80;;;;;;4956611;28;20176;-74
2022/08/14 02:17:03;;;;;;;0.63;0.40;;;20.00;78.10;;;;;;4956136;29;20265;-79
2022/08/14 02:19:33;;;;;;;0.40;0.40;;;20.50;78.70;;;;;;4956442;29;20190;-71
2022/08/14 02:22:02;;;;;;;0.30;0.30;;;20.50;78.00;;;;;;4956275;29;20236;-72
2022/08/14 02:24:30;;;;;;;0.30;0.30;;;20.30;75.80;;;;;;4969446;28;20183;-74
2022/08/14 02:26:59;;;;;;;0.43;0.40;;;20.50;76.60;;;;;;4975606;28;20246;-71
2022/08/14 02:29:28;;;;;;;0.97;0.53;;;20.40;72.00;;;;;;4975495;28;20176;-71
2022/08/14 02:31:58;;;;;;;0.53;0.30;;;19.90;74.70;;;;;;4975470;28;20218;-72
2022/08/14 02:34:30;;;;;;;0.40;0.40;;;20.20;75.90;;;;;;4975504;28;20178;-76
2022/08/14 02:37:10;;;;;;;0.30;0.30;;;20.70;78.30;;;;;;4975110;28;20182;-73
2022/08/14 02:39:43;;;;;;;0.30;0.30;;;21.00;72.60;;;;;;4975160;28;20186;-73
2022/08/14 02:42:13;;;;;;;0.40;0.30;;;21.20;72.90;;;;;;4974303;28;20242;-79
2022/08/14 02:44:42;;;;;;;0.47;0.30;;;21.30;70.00;;;;;;4964394;28;20187;-76
2022/08/14 02:47:10;;;;;;;0.40;0.30;;;21.00;71.10;;;;;;4974533;28;20547;-74
2022/08/14 02:49:38;;;;;;;0.30;0.30;;;21.10;71.80;;;;;;4975096;28;20654;-72
2022/08/14 02:52:06;;;;;;;0.87;0.40;;;21.30;70.70;;;;;;4975114;28;20253;-72
2022/08/14 02:54:35;;;;;;;0.20;0.20;;;20.60;69.60;;;;;;4974817;28;20202;-72
2022/08/14 02:57:05;;;;;;;1.60;0.40;;;20.50;75.50;;;;;;4974994;28;20784;-72
2022/08/14 02:59:35;;;;;;;0.37;0.30;;;21.00;82.20;;;;;;4974223;28;20257;-71
2022/08/14 03:02:04;;;;;;;4.00;0.50;;;21.00;75.20;;;;;;4973501;28;20187;-73
2022/08/14 03:04:32;;;;;;;0.73;0.30;;;20.60;73.70;;;;;;4974263;28;20269;-75
2022/08/14 03:06:59;;;;;;;0.30;0.30;;;20.00;76.70;;;;;;4974763;28;20682;-73
2022/08/14 03:09:28;;;;;;;0.30;0.30;;;19.80;76.80;;;;;;4974494;28;20194;-69
2022/08/14 03:11:55;;;;;;;1.27;0.40;;;19.60;84.20;;;;;;4973442;28;20682;-70
2022/08/14 03:14:24;;;;;;;0.30;0.30;;;20.40;81.60;;;;;;4974556;28;20661;-69
2022/08/14 03:16:52;;;;;;;0.30;0.30;;;21.20;83.00;;;;;;4974545;28;20187;-73
2022/08/14 03:19:19;;;;;;;0.77;0.30;;;21.60;73.00;;;;;;4974366;28;20241;-71
2022/08/14 03:21:47;;;;;;;1.43;0.40;;;21.30;65.20;;;;;;4974558;28;20190;-68
2022/08/14 03:24:14;;;;;;;0.30;0.30;;;21.10;69.40;;;;;;4974391;28;20185;-68
2022/08/14 03:26:44;;;;;;;0.40;0.40;;;20.20;73.30;;;;;;4980062;28;20180;-68
2022/08/14 03:29:19;;;;;;;0.47;0.47;;;20.10;75.00;;;;;;4974224;28;20610;-73
2022/08/14 03:31:50;;;;;;;0.30;0.30;;;19.50;83.40;;;;;;4974321;28;20227;-70
2022/08/14 03:34:22;;;;;;;0.30;0.30;;;19.80;81.90;;;;;;4973661;28;20678;-69
2022/08/14 03:36:57;;;;;;;0.30;0.30;;;20.10;88.50;;;;;;4974209;28;20227;-73
2022/08/14 03:39:25;;;;;;;0.30;0.30;;;20.60;81.40;;;;;;4973892;28;20274;-69
2022/08/14 03:41:55;;;;;;;0.43;0.30;;;20.30;81.60;;;;;;4973921;28;20274;-73
2022/08/14 03:44:24;;;;;;;0.30;0.30;;;19.90;81.70;;;;;;4973810;28;20191;-68
2022/08/14 03:46:53;;;;;;;1.03;0.43;;;19.30;87.30;;;;;;4973651;28;20217;-72
2022/08/14 03:49:25;;;;;;;0.30;0.30;;;19.10;93.20;;;;;;4973882;28;20179;-72
2022/08/14 03:51:52;;;;;;;0.93;0.40;;;19.30;91.10;;;;;;4972859;28;20709;-72
2022/08/14 03:54:19;;;;;;;0.30;0.30;;;19.90;91.50;;;;;;4973150;28;20177;-72
2022/08/14 03:56:47;;;;;;;0.30;0.30;;;20.50;89.00;;;;;;4973912;28;20183;-72
2022/08/14 03:59:14;;;;;;;0.40;0.40;;;20.70;83.50;;;;;;4973777;28;20556;-67
2022/08/14 04:01:42;;;;;;;0.30;0.30;;;20.80;86.30;;;;;;4973964;28;20179;-72
2022/08/14 04:04:13;;;;;;;0.70;0.40;;;20.90;84.50;;;;;;4973650;28;20635;-68
2022/08/14 04:06:40;;;;;;;0.33;0.30;;;20.70;81.80;;;;;;4973763;28;20198;-69
2022/08/14 04:09:08;;;;;;;0.30;0.30;;;20.30;82.60;;;;;;4973770;28;20196;-68
2022/08/14 04:11:36;;;;;;;0.30;0.30;;;20.10;90.00;;;;;;4973898;28;20215;-69
2022/08/14 04:14:05;;;;;;;0.30;0.30;;;19.80;86.10;;;;;;4976394;28;20200;-69
2022/08/14 04:16:33;;;;;;;1.27;0.33;;;19.80;88.30;;;;;;4973784;28;20213;-67
2022/08/14 04:19:03;;;;;;;3.20;0.33;;;19.80;88.90;;;;;;4955890;28;20305;-67
2022/08/14 04:21:31;;;;;;;0.30;0.30;;;19.90;89.30;;;;;;4973271;28;20226;-69
2022/08/14 04:24:00;;;;;;;0.90;0.30;;;20.10;87.00;;;;;;4973408;28;20189;-68
2022/08/14 04:26:29;;;;;;;0.40;0.37;;;19.90;85.10;;;;;;4972947;28;20274;-73
2022/08/14 04:28:58;;;;;;;0.30;0.30;;;20.00;92.00;;;;;;4954132;29;20178;-73
2022/08/14 04:31:27;;;;;;;0.57;0.30;;;19.90;90.20;;;;;;4969990;28;20232;-70
2022/08/14 04:33:54;;;;;;;2.57;0.83;;;20.30;92.60;;;;;;4972898;28;20185;-68
2022/08/14 04:36:21;;;;;;;0.40;0.40;;;20.60;89.10;;;;;;4972757;28;20231;-69
2022/08/14 04:44:21;;;;;;;1.10;0.93;;;20.30;90.10;;;;;;4973239;28;20198;-72
2022/08/14 04:49:35;;;;;;;0.97;0.40;;;20.40;83.60;;;;;;4972933;28;20271;-69
2022/08/14 04:52:03;;;;;;;1.43;0.30;;;19.70;82.70;;;;;;4955216;28;20590;-72
2022/08/14 04:54:31;;;;;;;0.50;0.50;;;19.30;90.10;;;;;;4972453;28;20187;-70
2022/08/14 04:56:58;;;;;;;0.30;0.30;;;18.90;93.40;;;;;;4972522;28;20183;-68
2022/08/14 04:59:26;;;;;;;1.63;0.83;;;19.00;96.80;;;;;;4973087;28;20962;-69
2022/08/14 05:01:53;;;;;;;0.40;0.40;;;19.20;96.90;;;;;;4955251;28;20199;-68
2022/08/14 05:04:21;;;;;;;0.40;0.40;;;19.10;97.40;;;;;;4972776;28;20179;-69
2022/08/14 05:06:50;;;;;;;0.73;0.50;;;19.10;97.40;;;;;;4972080;28;20183;-70
2022/08/14 05:09:18;;;;;;;1.50;0.60;;;19.20;99.90;;;;;;4972807;28;20186;-72
2022/08/14 05:11:46;;;;;;;3.70;0.80;;;19.10;99.90;;;;;;4955368;28;20222;-70
2022/08/14 05:14:13;;;;;;;6.63;1.00;;;18.90;99.90;;;;;;4972840;28;20186;-70
2022/08/14 05:16:40;;;;;;;2.03;1.20;;;19.00;99.90;;;;;;4972263;28;20188;-70
2022/08/14 05:19:12;;;;;;;8.03;0.50;;;18.80;99.90;;;;;;4972607;28;20233;-70
2022/08/14 05:21:42;;;;;;;1.83;1.17;;;18.70;99.90;;;;;;4955931;28;20269;-69
2022/08/14 05:24:11;;;;;;;1.03;0.60;;;18.60;99.90;;;;;;4972707;28;20268;-70
2022/08/14 05:26:45;;;;;;;2.47;0.50;;;18.20;99.90;;;;;;4972334;28;20234;-70
2022/08/14 05:29:15;;;;;;;0.40;0.40;;;17.80;99.90;;;;;;4972703;28;20187;-69
2022/08/14 05:31:43;;;;;;;1.90;0.30;;;17.40;99.90;;;;;;4972382;28;20553;-69
2022/08/14 05:34:10;;;;;;;0.30;0.30;;;17.50;99.90;;;;;;4972558;28;20613;-72
2022/08/14 05:36:39;;;;;;;1.93;0.50;;;17.50;99.90;;;;;;4972171;28;20203;-69
2022/08/14 05:39:06;;;;;;;0.37;0.37;;;17.50;99.90;;;;;;4972583;28;20630;-69
2022/08/14 05:41:35;;;;;;;0.40;0.40;;;17.40;99.90;;;;;;4972299;28;20666;-69
2022/08/14 05:44:02;;;;;;;0.47;0.40;;;17.40;99.90;;;;;;4954960;28;20187;-70
2022/08/14 05:46:30;;;;;;;0.40;0.30;;;17.20;99.90;;;;;;4954156;28;20194;-70
2022/08/14 05:48:59;;;;;;;3.37;2.53;;;17.20;99.90;;;;;;4972355;28;20175;-69
2022/08/14 05:51:27;;;;;;;0.37;0.37;;;17.30;99.90;;;;;;4972223;28;20227;-69
2022/08/14 05:53:58;;;;;;;0.40;0.30;;;17.50;99.90;;;;;;4971965;28;20229;-69
2022/08/14 05:56:25;;;;;;;0.30;0.30;;;17.50;99.90;;;;;;4972120;28;20183;-72
2022/08/14 05:58:53;;;;;;;0.53;0.40;;;17.60;99.90;;;;;;4972184;28;20179;-70
2022/08/14 06:01:21;;;;;;;1.67;0.60;;;17.40;99.90;;;;;;4972277;28;20186;-69
2022/08/14 06:03:48;;;;;;;0.30;0.30;;;17.30;99.90;;;;;;4954874;28;20194;-72
2022/08/14 06:06:17;;;;;;;0.60;0.30;;;17.30;99.90;;;;;;4971966;28;20187;-68
2022/08/14 06:08:44;;;;;;;0.93;0.50;;;17.20;99.90;;;;;;4971916;28;20684;-68
2022/08/14 06:11:12;;;;;;;1.50;0.53;;;17.10;99.90;;;;;;4972161;28;20203;-69
2022/08/14 06:13:41;;;;;;;0.60;0.57;;;17.00;99.90;;;;;;4954580;28;20188;-68
2022/08/14 06:16:09;;;;;;;0.50;0.50;;;16.80;99.90;;;;;;4954535;28;20230;-72
2022/08/14 06:18:37;;;;;;;0.40;0.40;;;16.70;99.90;;;;;;4974499;28;20258;-70
2022/08/14 06:21:05;;;;;;;0.93;0.50;;;16.60;99.90;;;;;;4975625;28;20180;-70
2022/08/14 06:23:33;;;;;;;3.23;0.53;;;16.60;99.90;;;;;;4975052;28;20226;-69
2022/08/14 06:26:00;;;;;;;1.90;0.60;;;16.50;99.90;;;;;;4975592;28;20230;-69
2022/08/14 06:28:28;;;;;;;1.23;0.70;;;16.50;99.90;;;;;;4975844;28;20542;-69
2022/08/14 06:30:56;;;;;;;0.83;0.53;;;16.50;99.90;;;;;;4975290;28;20213;-68
2022/08/14 06:33:23;;;;;;;0.70;0.60;;;16.50;99.90;;;;;;4975793;28;20184;-70
2022/08/14 06:35:51;;;;;;;0.77;0.77;;;16.40;99.90;;;;;;4975536;28;20656;-70
2022/08/14 06:38:22;;;;;;;1.17;0.60;;;16.40;99.90;;;;;;4975266;28;20179;-68
2022/08/14 06:40:51;;;;;;;0.63;0.57;;;16.40;99.90;;;;;;4974935;28;20191;-69
2022/08/14 06:43:19;;;;;;;0.47;0.47;;;16.40;99.90;;;;;;4957925;28;20249;-71
2022/08/14 06:45:48;;;;;;;2.00;0.60;;;16.30;99.90;;;;;;4975079;28;20175;-71
2022/08/14 06:48:18;;;;;;;0.40;0.40;;;16.20;99.90;;;;;;4975276;28;20187;-68
2022/08/14 06:50:47;;;;;;;0.60;0.50;;;16.20;99.90;;;;;;4974739;28;20306;-73
2022/08/14 06:53:18;;;;;;;1.03;0.70;;;16.00;99.90;;;;;;4974868;28;20586;-69
2022/08/14 06:55:47;;;;;;;1.03;0.70;;;15.90;99.90;;;;;;4974934;28;20168;-69
2022/08/14 06:58:16;;;;;;;3.27;0.70;;;15.80;99.90;;;;;;4974899;28;20239;-70
2022/08/14 07:06:19;;;;;;;0.40;0.40;;;15.50;99.90;;;;;;4955763;29;20182;-71
2022/08/14 07:08:46;;;;;;;0.40;0.40;;;15.40;99.90;;;;;;4955504;29;20307;-71
2022/08/14 07:11:14;;;;;;;3.87;0.50;;;15.40;99.90;;;;;;4955418;29;20315;-68
2022/08/14 07:13:41;;;;;;;0.40;0.40;;;15.30;99.90;;;;;;4970524;28;20177;-69
2022/08/14 07:16:11;;;;;;;0.63;0.63;;;15.20;99.90;;;;;;4974261;28;20242;-70
2022/08/14 07:18:40;;;;;;;0.40;0.40;;;15.20;99.90;;;;;;4974505;28;20229;-69
2022/08/14 07:21:09;;;;;;;0.70;0.47;;;15.10;99.90;;;;;;4975031;28;20179;-72
2022/08/14 07:23:37;;;;;;;0.50;0.50;;;15.00;99.90;;;;;;4974809;28;20677;-72
2022/08/14 07:26:05;;;;;;;0.40;0.40;;;14.90;99.90;;;;;;4974587;28;20586;-72
2022/08/14 07:28:35;;;;;;;3.03;0.73;;;14.80;99.90;;;;;;4973167;28;20179;-69
2022/08/14 07:31:05;;;;;;;0.57;0.57;;;14.70;99.90;;;;;;4974728;28;20222;-74
2022/08/14 07:33:39;;;;;;;0.67;0.60;;;14.60;99.90;;;;;;4974494;28;20179;-71
2022/08/14 07:36:09;;;;;;;0.97;0.63;;;14.50;99.90;;;;;;4974131;28;20603;-70
2022/08/14 07:38:39;;;;;;;0.50;0.50;;;14.40;99.90;;;;;;4956487;28;20644;-72
2022/08/14 07:41:09;;;;;;;0.50;0.40;;;14.40;99.90;;;;;;4973999;28;20204;-70
2022/08/14 07:43:38;;;;;;;0.50;0.50;;;14.30;99.90;;;;;;4974303;28;20605;-72
2022/08/14 07:46:06;;;;;;;0.67;0.60;;;14.20;99.90;;;;;;4974115;28;20193;-69
2022/08/14 07:48:39;;;;;;;0.60;0.60;;;14.10;99.90;;;;;;4957572;28;20192;-68
2022/08/14 07:51:07;;;;;;;0.73;0.50;;;14.00;99.90;;;;;;4974713;28;20218;-72
2022/08/14 07:53:34;;;;;;;0.83;0.60;;;13.90;99.90;;;;;;4973893;28;20182;-70
2022/08/14 07:56:01;;;;;;;1.23;0.70;;;13.90;99.90;;;;;;4974089;28;20174;-73
2022/08/14 07:58:29;;;;;;;0.67;0.67;;;13.80;99.90;;;;;;4956573;28;20650;-70
2022/08/14 08:00:57;;;;;;;2.50;0.50;;;13.80;99.90;;;;;;4956352;28;20190;-71
2022/08/14 08:03:28;;;;;;;1.00;0.70;;;13.70;99.90;;;;;;4973509;28;20609;-67
2022/08/14 08:05:55;;;;;;;0.57;0.57;;;13.60;99.90;;;;;;4973674;28;20188;-70
2022/08/14 08:08:24;;;;;;;1.90;0.97;;;13.60;99.90;;;;;;4973605;28;20190;-68
2022/08/14 08:10:55;;;;;;;0.73;0.60;;;13.50;99.90;;;;;;4956212;28;20619;-68
2022/08/14 08:13:22;;;;;;;0.60;0.60;;;13.50;99.90;;;;;;4973721;28;20178;-68
2022/08/14 08:15:56;;;;;;;0.60;0.60;;;13.40;99.90;;;;;;4973367;28;20191;-69
2022/08/14 08:18:24;;;;;;;0.97;0.80;;;13.40;99.90;;;;;;4973347;28;20423;-69
2022/08/14 08:20:53;;;;;;;0.77;0.70;;;13.40;99.90;;;;;;4973214;28;20648;-69
2022/08/14 08:23:22;;;;;;;0.60;0.60;;;13.40;99.90;;;;;;4973648;28;20228;-72
2022/08/14 08:25:52;;;;;;;0.67;0.67;;;13.40;99.90;;;;;;4973588;28;20234;-69
2022/08/14 08:28:21;;;;;;;0.90;0.80;;;13.40;99.90;;;;;;4973299;28;20737;-69
2022/08/14 08:30:55;;;;;;;0.73;0.70;;;13.40;99.90;;;;;;4973466;28;20687;-70
2022/08/14 08:33:26;;;;;;;0.90;0.80;;;13.30;99.90;;;;;;4972963;28;20535;-70
2022/08/14 08:36:10;;;;;;;1.60;1.10;;;13.30;99.90;;;;;;4957012;28;20711;-69
2022/08/14 08:38:43;;;;;;;1.83;1.00;;;13.20;99.90;;;;;;4973031;28;20193;-69
2022/08/14 08:41:12;;;;;;;1.67;1.20;;;13.10;99.90;;;;;;4973285;28;20312;-72
2022/08/14 08:43:40;;;;;;;4.03;2.47;;;13.00;99.90;;;;;;4974509;28;20189;-72
2022/08/14 08:46:15;;;;;;;6.17;3.30;;;13.00;99.90;;;;;;4974400;28;20534;-69
2022/08/14 08:48:52;;;;;;;3.63;2.83;;;13.00;99.90;;;;;;4974611;28;20192;-72
2022/08/14 08:51:32;;;;;;;2.60;1.80;;;13.00;99.90;;;;;;4957379;28;20213;-70
2022/08/14 08:54:12;;;;;;;1.63;1.07;;;13.00;99.90;;;;;;4974417;28;20666;-68
2022/08/14 08:56:44;;;;;;;2.77;2.00;;;13.00;99.90;;;;;;4974268;28;20172;-70
2022/08/14 08:59:32;;;;;;;1.77;1.40;;;12.90;99.90;;;;;;4973986;28;20182;-71
2022/08/14 09:02:02;;;;;;;1.30;1.10;;;12.80;99.90;;;;;;4974505;28;20207;-68
2022/08/14 09:04:37;;;;;;;1.53;1.13;;;12.90;99.90;;;;;;4957100;28;20185;-68
2022/08/14 09:07:10;;;;;;;1.43;1.27;;;12.80;99.90;;;;;;4955187;29;20215;-70
2022/08/14 09:09:50;;;;;;;1.60;1.20;;;12.70;99.90;;;;;;4973940;28;20181;-70
2022/08/14 09:12:20;;;;;;;1.47;1.30;;;12.70;99.90;;;;;;4973831;28;20270;-69
2022/08/14 09:14:52;;;;;;;1.30;0.97;;;12.80;99.90;;;;;;4978247;28;20180;-71
2022/08/14 09:17:20;;;;;;;0.80;0.77;;;12.80;99.90;;;;;;4978062;28;20181;-72
2022/08/14 09:19:48;;;;;;;0.67;0.63;;;12.90;99.90;;;;;;4958476;28;20182;-70
2022/08/14 09:22:17;;;;;;;0.60;0.60;;;12.90;99.90;;;;;;4973864;28;20189;-69
2022/08/14 09:24:48;;;;;;;1.23;0.67;;;13.00;99.90;;;;;;4974014;28;20260;-68
2022/08/14 09:27:16;;;;;;;0.67;0.67;;;12.90;99.90;;;;;;4973780;28;20181;-72
2022/08/14 09:29:44;;;;;;;1.00;0.70;;;13.00;99.90;;;;;;4974000;28;20238;-71
2022/08/14 09:32:18;;;;;;;0.87;0.80;;;13.00;99.90;;;;;;4973668;28;20618;-69
2022/08/14 09:35:24;;;;;;;1.07;0.80;;;12.90;99.90;;;;;;4973887;28;20207;-73
2022/08/14 09:38:06;;;;;;;0.73;0.70;;;12.80;99.90;;;;;;4937176;28;20195;-70
2022/08/14 09:40:59;;;;;;;2.60;0.60;;;12.70;99.90;;;;;;4974631;28;20180;-72
2022/08/14 09:43:41;;;;;;;0.70;0.60;;;12.70;99.90;;;;;;4973749;28;20192;-70
2022/08/14 09:46:11;;;;;;;0.63;0.60;;;12.70;99.90;;;;;;4973974;28;20544;-73
2022/08/14 09:48:39;;;;;;;2.60;0.73;;;12.60;99.90;;;;;;4973800;28;20200;-70
2022/08/14 09:51:08;;;;;;;0.63;0.63;;;12.60;99.90;;;;;;4973668;28;20607;-72
2022/08/14 09:53:59;;;;;;;0.60;0.60;;;12.50;99.90;;;;;;4959759;28;20195;-71
2022/08/14 09:56:27;;;;;;;1.10;0.77;;;12.50;99.90;;;;;;4977403;28;20224;-72
2022/08/14 09:58:59;;;;;;;0.70;0.70;;;12.50;99.90;;;;;;4941224;29;20181;-69
2022/08/14 10:01:36;;;;;;;0.77;0.60;;;12.60;99.90;;;;;;4960960;28;20407;-71
2022/08/14 10:04:18;;;;;;;0.73;0.63;;;12.60;99.90;;;;;;4957122;29;20747;-73
2022/08/14 10:06:46;;;;;;;1.33;0.80;;;12.60;99.90;;;;;;4958224;29;20182;-68
2022/08/14 10:09:14;;;;;;;0.80;0.60;;;12.60;99.90;;;;;;4957018;29;20185;-71
2022/08/14 10:11:54;;;;;;;1.60;0.80;;;12.60;99.90;;;;;;4966858;28;20208;-69
2022/08/14 10:14:25;;;;;;;1.10;0.80;;;12.70;99.90;;;;;;4977506;28;20204;-68
2022/08/14 10:16:55;;;;;;;1.17;1.03;;;12.70;99.90;;;;;;4977102;28;20266;-68
2022/08/14 10:19:27;;;;;;;1.10;0.97;;;12.60;99.90;;;;;;4977130;28;20311;-68
2022/08/14 10:22:09;;;;;;;1.37;0.97;;;12.50;99.90;;;;;;4976971;28;20244;-73
2022/08/14 10:24:45;;;;;;;1.17;0.90;;;12.50;99.90;;;;;;4977009;28;20216;-72
2022/08/14 10:27:24;;;;;;;1.00;0.90;;;12.50;99.90;;;;;;4977170;28;20268;-72
2022/08/14 10:30:00;;;;;;;0.97;0.90;;;12.40;99.90;;;;;;4974425;28;20200;-72
2022/08/14 10:32:28;;;;;;;2.13;0.70;;;12.40;99.90;;;;;;4976386;28;20255;-72
2022/08/14 10:35:08;;;;;;;0.70;0.70;;;12.30;99.90;;;;;;4959210;28;20212;-72
2022/08/14 10:37:47;;;;;;;0.97;0.70;;;12.40;99.90;;;;;;4977148;28;20191;-71
2022/08/14 10:40:26;;;;;;;1.63;0.60;;;12.40;99.90;;;;;;4957438;29;20193;-68
2022/08/14 10:42:54;;;;;;;0.60;0.60;;;12.40;99.90;;;;;;4957569;29;20177;-73
2022/08/14 10:45:25;;;;;;;0.87;0.77;;;12.40;99.90;;;;;;4966843;28;20188;-68
2022/08/14 10:47:53;;;;;;;0.87;0.77;;;12.40;99.90;;;;;;4976686;28;20221;-68
2022/08/14 10:50:40;;;;;;;0.60;0.60;;;12.40;99.90;;;;;;4976392;28;20270;-70
2022/08/14 10:53:12;;;;;;;2.23;0.77;;;12.40;99.90;;;;;;4976329;28;20274;-72
2022/08/14 10:55:42;;;;;;;0.80;0.70;;;12.40;99.90;;;;;;4976037;28;20194;-71
2022/08/14 10:58:10;;;;;;;0.73;0.70;;;12.30;99.90;;;;;;4976396;28;20310;-71
2022/08/14 11:00:53;;;;;;;0.50;0.50;;;12.30;99.90;;;;;;4976276;28;20193;-68
2022/08/14 11:03:22;;;;;;;0.57;0.57;;;12.30;99.90;;;;;;4975280;28;20278;-70
2022/08/14 11:05:51;;;;;;;0.60;0.60;;;12.30;99.90;;;;;;4976015;28;20267;-71
2022/08/14 11:08:32;;;;;;;1.10;0.73;;;12.30;99.90;;;;;;4976333;28;20266;-70
2022/08/14 11:11:04;;;;;;;1.43;0.80;;;12.40;99.90;;;;;;4976378;28;20216;-69
2022/08/14 11:13:32;;;;;;;1.23;0.80;;;12.40;99.90;;;;;;4974895;28;20231;-70
2022/08/14 11:16:01;;;;;;;1.00;0.87;;;12.40;99.90;;;;;;4975981;28;20584;-72
2022/08/14 11:18:31;;;;;;;1.63;0.93;;;12.40;99.90;;;;;;4975402;28;20230;-72
2022/08/14 11:21:00;;;;;;;0.77;0.70;;;12.40;99.90;;;;;;4975923;28;20187;-74
2022/08/14 11:23:35;;;;;;;2.13;0.80;;;12.40;99.90;;;;;;4958299;28;20250;-70
2022/08/14 11:26:04;;;;;;;1.93;1.10;;;12.50;99.90;;;;;;4976096;28;20627;-67
2022/08/14 11:28:40;;;;;;;0.90;0.90;;;12.50;99.90;;;;;;4975881;28;20196;-68
2022/08/14 11:31:15;;;;;;;1.77;0.90;;;12.40;99.90;;;;;;4975416;28;20674;-70
2022/08/14 11:33:47;;;;;;;2.73;1.00;;;12.40;99.90;;;;;;4975702;28;20192;-68
2022/08/14 11:36:15;;;;;;;1.60;1.00;;;12.40;99.90;;;;;;4976024;28;20232;-74
2022/08/14 11:38:45;;;;;;;0.80;0.70;;;12.40;99.90;;;;;;4975650;28;20207;-68
2022/08/14 11:41:17;;;;;;;0.70;0.70;;;12.40;99.90;;;;;;4975807;28;20183;-72
2022/08/14 11:43:50;;;;;;;2.80;0.73;;;12.40;99.90;;;;;;4975524;28;20177;-69
2022/08/14 11:46:20;;;;;;;0.77;0.70;;;12.30;99.90;;;;;;4976073;28;20189;-68
2022/08/14 11:48:56;;;;;;;1.17;0.93;;;12.40;99.90;;;;;;4975571;28;20189;-69
2022/08/14 11:51:27;;;;;;;1.37;0.80;;;12.40;99.90;;;;;;4975522;28;20220;-69
2022/08/14 11:54:06;;;;;;;0.70;0.70;;;12.50;99.90;;;;;;4975410;28;20244;-68
2022/08/14 11:56:40;;;;;;;1.00;0.73;;;12.40;99.90;;;;;;4975049;28;20204;-68
2022/08/14 11:59:16;;;;;;;0.60;0.60;;;12.40;99.90;;;;;;4958081;28;20243;-69
2022/08/14 12:01:45;;;;;;;1.53;0.80;;;12.50;99.90;;;;;;4975228;28;20206;-71
2022/08/14 12:04:17;;;;;;;1.00;0.70;;;12.50;99.90;;;;;;4975317;28;20185;-68
2022/08/14 12:06:55;;;;;;;1.87;0.90;;;12.50;99.90;;;;;;4975075;28;20192;-68
2022/08/14 12:09:34;;;;;;;1.03;0.77;;;12.50;99.90;;;;;;4973009;28;20173;-71
2022/08/14 12:12:19;;;;;;;2.00;1.00;;;12.50;99.90;;;;;;4974435;28;20248;-72
2022/08/14 12:15:01;;;;;;;2.47;1.00;;;12.50;99.90;;;;;;4959612;28;20192;-68
2022/08/14 12:17:31;;;;;;;3.10;1.47;;;12.50;99.90;;;;;;4974726;28;20245;-73
2022/08/14 12:20:05;;;;;;;1.60;1.17;;;12.40;99.90;;;;;;4975230;28;20202;-72
2022/08/14 12:22:37;;;;;;;1.20;0.90;;;12.40;99.90;;;;;;4974580;28;20192;-73
2022/08/14 12:25:08;;;;;;;1.63;1.00;;;12.40;99.90;;;;;;4974981;28;20184;-68
2022/08/14 12:27:51;;;;;;;2.47;1.00;;;12.30;99.90;;;;;;4975098;28;20189;-73
2022/08/14 12:30:33;;;;;;;3.17;1.20;;;12.30;99.90;;;;;;4975040;28;20176;-71
2022/08/14 12:33:03;;;;;;;2.43;1.10;;;12.20;99.90;;;;;;4974324;28;20196;-67
2022/08/14 12:35:44;;;;;;;1.27;1.10;;;12.20;99.90;;;;;;4974802;28;20267;-69
2022/08/14 12:38:15;;;;;;;1.50;1.00;;;12.10;99.90;;;;;;4974570;28;20192;-73
2022/08/14 12:40:51;;;;;;;4.13;1.20;;;12.00;99.90;;;;;;4974623;28;20177;-69
2022/08/14 12:43:20;;;;;;;2.20;1.20;;;12.00;99.90;;;;;;4974340;28;20181;-68
2022/08/14 12:45:50;;;;;;;2.27;1.10;;;11.90;99.90;;;;;;4974592;28;20176;-72
2022/08/14 12:48:19;;;;;;;1.70;0.93;;;12.00;99.90;;;;;;4974672;28;20262;-72
2022/08/14 12:50:47;;;;;;;3.53;1.13;;;11.90;99.90;;;;;;4957306;28;20180;-71
2022/08/14 12:53:15;;;;;;;2.00;0.80;;;11.90;99.90;;;;;;4974276;28;20190;-69
2022/08/14 12:55:44;;;;;;;0.83;0.83;;;11.90;99.90;;;;;;4974438;28;20640;-73
2022/08/14 12:58:12;;;;;;;1.07;0.97;;;11.90;99.90;;;;;;4974256;28;20186;-68
2022/08/14 13:00:51;;;;;;;2.00;1.10;;;11.90;99.90;;;;;;4974028;28;20176;-73
2022/08/14 13:03:25;;;;;;;0.80;0.80;;;11.90;99.90;;;;;;4974145;28;20279;-70
2022/08/14 13:05:54;;;;;;;1.03;0.90;;;11.90;99.90;;;;;;4974496;28;20597;-69
2022/08/14 13:08:22;;;;;;;1.13;0.97;;;12.00;99.90;;;;;;4974098;28;20288;-73
2022/08/14 13:10:50;;;;;;;1.30;1.00;;;11.90;99.90;;;;;;4974261;28;20180;-67
2022/08/14 13:13:19;;;;;;;0.70;0.70;;;11.90;99.90;;;;;;4973913;28;20183;-71
2022/08/14 13:15:51;;;;;;;0.73;0.73;;;11.90;99.90;;;;;;4974393;28;20184;-68
2022/08/14 13:18:21;;;;;;;1.77;0.90;;;11.80;99.90;;;;;;4973974;28;20588;-73
2022/08/14 13:20:50;;;;;;;0.90;0.80;;;11.80;99.90;;;;;;4974317;28;20606;-73
2022/08/14 13:23:19;;;;;;;0.80;0.80;;;11.90;99.90;;;;;;4973401;28;20180;-68